Shell Fueler — WZW7217 — position and weather

sailwx.info

Track history (hours):
 
Tides and Currents Weather Stations Pressure Air Temp Water Temp Dewpoint Dewpoint Depression Visibility Wind Speed Wind Dir Waves Ship Positions

Shell Fueler

Owner: JOHN W STONE OIL DIST .LLC, GRETNA, LA. More information available from US FCC via Universal Licensing System and Coast Guard Vessel Documentation Center.

Last reported at 2014-Oct-24 01:23 UTC. Time now 2014-Oct-24 07:53 UTC.
Position N 29°57' W 090°01'.

Length 21 m; draft 2.5 m.

Type: Towing. MMSI: 366954210.

Date/timePositionNaut miles runAvg speedWind from/ knotsBaromVisibWave heightAir tempDewpointWater temp
2014-Oct-24 01:23N 29°57' W 090°01'3 3.4
2014-Oct-24 00:34N 29°56' W 090°04'0 0.1
2014-Oct-23 23:32N 29°56' W 090°04'0 0.3
2014-Oct-23 22:33N 29°55' W 090°04'0 0.2
2014-Oct-23 21:32N 29°56' W 090°04'0 0.0
2014-Oct-23 04:33N 29°56' W 090°04'0 0.4
2014-Oct-23 03:33N 29°55' W 090°04'0 0.3
2014-Oct-23 02:30N 29°56' W 090°04'0 0.0
2014-Oct-23 01:33N 29°56' W 090°04'0 0.3
2014-Oct-23 00:33N 29°56' W 090°03'0 0.3
2014-Oct-22 23:31N 29°56' W 090°04'0 0.1
2014-Oct-22 22:33N 29°56' W 090°04'0 0.1
2014-Oct-22 21:30N 29°56' W 090°04'0 0.0
2014-Oct-22 20:32N 29°56' W 090°04'0 0.1
2014-Oct-22 19:33N 29°55' W 090°04'0 0.4
2014-Oct-22 18:30N 29°56' W 090°03'0 0.5
2014-Oct-22 17:27N 29°55' W 090°04'0 0.0
2014-Oct-22 13:07N 29°55' W 090°04'0 0.0
2014-Oct-22 12:32N 29°55' W 090°04'3 0.1
2014-Oct-21 12:13N 29°55' W 090°06'3 1.5
2014-Oct-21 10:31N 29°55' W 090°04'0 0.0
2014-Oct-21 05:26N 29°56' W 090°04'  
2014-Oct-15 09:15N 29°56' W 090°03'0 0.1
2014-Oct-15 08:33N 29°56' W 090°03'0 0.0
2014-Oct-15 07:33N 29°56' W 090°03'0 0.0
2014-Oct-15 06:33N 29°56' W 090°03'0 0.0
2014-Oct-15 05:32N 29°56' W 090°03'0 0.0
2014-Oct-15 04:31N 29°56' W 090°03'  
Track history (hours):
 
Tides and Currents Weather Stations Pressure Air Temp Water Temp Dewpoint Dewpoint Depression Visibility Wind Speed Wind Dir Waves Ship Positions

Shell Fueler

Owner: JOHN W STONE OIL DIST .LLC, GRETNA, LA. More information available from US FCC via Universal Licensing System and Coast Guard Vessel Documentation Center.

Last reported at 2014-Oct-24 01:23 UTC. Time now 2014-Oct-24 07:53 UTC.
Position N 29°57' W 090°01'.

Length 21 m; draft 2.5 m.

Type: Towing. MMSI: 366954210.

Date/timePositionNaut miles runAvg speedWind from/ knotsBaromVisibWave heightAir tempDewpointWater temp
2014-Oct-24 01:23N 29°57' W 090°01'3 3.4
2014-Oct-24 00:34N 29°56' W 090°04'0 0.1
2014-Oct-23 23:32N 29°56' W 090°04'0 0.3
2014-Oct-23 22:33N 29°55' W 090°04'0 0.2
2014-Oct-23 21:32N 29°56' W 090°04'0 0.0
2014-Oct-23 04:33N 29°56' W 090°04'0 0.4
2014-Oct-23 03:33N 29°55' W 090°04'0 0.3
2014-Oct-23 02:30N 29°56' W 090°04'0 0.0
2014-Oct-23 01:33N 29°56' W 090°04'0 0.3
2014-Oct-23 00:33N 29°56' W 090°03'0 0.3
2014-Oct-22 23:31N 29°56' W 090°04'0 0.1
2014-Oct-22 22:33N 29°56' W 090°04'0 0.1
2014-Oct-22 21:30N 29°56' W 090°04'0 0.0
2014-Oct-22 20:32N 29°56' W 090°04'0 0.1
2014-Oct-22 19:33N 29°55' W 090°04'0 0.4
2014-Oct-22 18:30N 29°56' W 090°03'0 0.5
2014-Oct-22 17:27N 29°55' W 090°04'0 0.0
2014-Oct-22 13:07N 29°55' W 090°04'0 0.0
2014-Oct-22 12:32N 29°55' W 090°04'3 0.1
2014-Oct-21 12:13N 29°55' W 090°06'3 1.5
2014-Oct-21 10:31N 29°55' W 090°04'0 0.0
2014-Oct-21 05:26N 29°56' W 090°04'  
2014-Oct-15 09:15N 29°56' W 090°03'0 0.1
2014-Oct-15 08:33N 29°56' W 090°03'0 0.0
2014-Oct-15 07:33N 29°56' W 090°03'0 0.0
2014-Oct-15 06:33N 29°56' W 090°03'0 0.0
2014-Oct-15 05:32N 29°56' W 090°03'0 0.0
2014-Oct-15 04:31N 29°56' W 090°03'  

Dump ship's entire track history